IVALO current weather conditions

sailwx.info

Wind from 300 at 7 knots

Air temperature -1.0° C
Dewpoint -4.0° C

Last reported at 2014-Oct-31 05:50 UTC.
Time now 2014-Oct-31 07:02 UTC

Location: N 68°37' E 027°25'.
View on Google Maps.

See reports from other nearby stations

  
Tides and Currents Weather Stations Pressure Air Temp Water Temp Dewpoint Dewpoint Depression Visibility Wind Speed Wind Dir Waves Ship Positions
date/time (UTC)wind fromknots sea level pressurealtimeterstation pressurevisibilityair tempwater tempwave heightnotes
2014-Oct-31 05:50 300 7 -1.0
2014-Oct-31 05:20 310 8 5.4-1.0 Light snow showers.
2014-Oct-31 04:50 310 9 5.4-1.0 Light snow.
2014-Oct-31 04:20 310 7 5.4-2.0
2014-Oct-31 03:50 310 8 -2.0
2014-Oct-31 03:20 310 8 -1.0
2014-Oct-31 02:50 310 7 -2.0
2014-Oct-31 02:20 310 7 -2.0
2014-Oct-31 01:50 300 8 -2.0
2014-Oct-31 01:20 310 8 5.4-2.0
2014-Oct-31 00:50 300 10 3.2-2.0 Light snow grains.
2014-Oct-31 00:20 300 8 -2.0
2014-Oct-30 23:50 310 10 5.4-1.0
2014-Oct-30 23:20 300 8 -2.0
2014-Oct-30 22:50 290 7 -2.0
2014-Oct-30 22:20 300 5 5.4-2.0
2014-Oct-30 21:50 300 6 5.4-2.0
2014-Oct-30 21:20 300 7 -1.0
2014-Oct-30 20:50 290 8 -1.0
2014-Oct-30 20:20 300 7 -1.0
2014-Oct-30 19:50 290 7 -1.0
2014-Oct-30 19:20 290 7 -1.0
2014-Oct-30 18:50 300 8 -1.0
2014-Oct-30 18:20 300 8 -1.0
2014-Oct-30 17:50 310 9 -1.0
2014-Oct-30 17:20 310 8 -1.0
2014-Oct-30 16:50 300 9 -1.0
2014-Oct-30 16:20 300 8 -1.0
2014-Oct-30 15:50 300 8 -0.0
2014-Oct-30 15:20 300 10 5.4-0.0
2014-Oct-30 14:50 300 8 5.4-0.0
2014-Oct-30 14:20 300 10 5.4-0.0
2014-Oct-30 13:50 290 8 1.0
2014-Oct-30 13:20 290 10 1.0
2014-Oct-30 12:50 300 8 1.0
2014-Oct-30 12:20 300 9 1.0
2014-Oct-30 11:50 290 10 1.0
2014-Oct-30 11:20 290 8 2.0
2014-Oct-30 10:50 300 9 1.0
2014-Oct-30 10:20 300 7 1.0
2014-Oct-30 09:50 290 10 1.0
2014-Oct-30 09:20 290 8 gusting 18 -0.0
2014-Oct-30 08:50 280 6 -0.0
2014-Oct-30 08:20 280 7 -0.0
2014-Oct-30 07:50 270 7 -1.0
2014-Oct-30 07:20 250 7 -2.0
2014-Oct-30 06:50 260 7 -2.0
2014-Oct-30 06:20 240 6 -3.0
2014-Oct-30 05:50 230 8 -3.0
2014-Oct-30 05:20 220 7 -2.0
2014-Oct-30 04:50 230 4 5.4-2.0
2014-Oct-30 04:20 220 6 -2.0
2014-Oct-30 03:50 250 2 -3.0
2014-Oct-30 03:20 220 8 -2.0
2014-Oct-30 02:50 270 2 -2.0
2014-Oct-30 02:20 220 7 -2.0
2014-Oct-30 01:50 240 7 -1.0
2014-Oct-30 01:20 5.4-1.0
2014-Oct-30 00:50 210 7 5.4-0.0
2014-Oct-30 00:20 210 8 5.4-0.0
2014-Oct-29 23:50 220 10 -0.0
2014-Oct-29 23:20 210 9 -0.0
2014-Oct-29 22:50 210 11 -0.0
2014-Oct-29 22:20 210 13 -0.0
2014-Oct-29 21:50 210 13 -0.0
2014-Oct-29 21:20 210 12 -0.0
2014-Oct-29 20:50 210 11 -0.0
2014-Oct-29 20:20 210 12 -0.0
2014-Oct-29 19:50 210 12 -0.0
2014-Oct-29 19:20 220 11 -0.0
2014-Oct-29 18:50 210 9 -0.0
2014-Oct-29 18:20 210 9 -0.0
2014-Oct-29 17:50 220 8 -0.0
2014-Oct-29 17:20 220 8 -1.0
2014-Oct-29 16:50 220 6 -1.0
2014-Oct-29 16:20 220 3 -0.0
2014-Oct-29 15:50 210 5 -0.0
2014-Oct-29 15:20 210 4 -0.0
2014-Oct-29 14:50 200 6 1.0
2014-Oct-29 14:20 190 4 1.0
2014-Oct-29 13:50 200 2 1.0
2014-Oct-29 13:20 210 3 1.0
2014-Oct-29 12:50 200 5 5.4 1.0
2014-Oct-29 12:20 220 5 5.4 2.0
2014-Oct-29 11:50 220 9 5.4 2.0
2014-Oct-29 11:20 220 10 5.4 2.0
2014-Oct-29 10:50 230 8 5.4 2.0
2014-Oct-29 10:20 240 8 5.4 2.0
2014-Oct-29 09:50 230 12 5.4 2.0
2014-Oct-29 09:20 230 9 5.4 2.0
2014-Oct-29 08:50 240 10 5.4 2.0
2014-Oct-29 08:20 250 11 5.4 3.0
2014-Oct-29 07:50 260 6 5.4 3.0
2014-Oct-29 07:20 270 3 5.4 3.0